< < Back
Terminal Aerodrome Forecast


Current Version              Previous Versions:   1  2  3  4  5  6  7  8  9  

Terminal Aerodrome Forecast

705
FTUS42 KJAX 281405 AAA
TAFSSI
TAF AMD
KSSI 281405Z 2814/2912 07012G18KT P6SM VCSH SCT025 BKN035 BKN060
     FM282300 08011KT P6SM SCT040 BKN120
     FM290300 08009KT P6SM SCT040 BKN120=



Latest METAR

993
SAUS70 KWBC 281800
MTRSSI
METAR KSSI 281753Z AUTO 07014KT 10SM CLR 31/23 A3006 RMK AO2 LTG DSNT SE
SLP181 T03110233 10311 20272 58008


USA.gov is the U.S. government's official web portal to all federal, state and local government web resources and services.